createdAt,value
2019-04-20T00:00:51.526Z,43.98
2019-04-20T00:03:18.060Z,44.52
2019-04-20T00:05:46.642Z,44.07
2019-04-20T00:08:21.726Z,44.56
2019-04-20T00:10:55.136Z,44.46
2019-04-20T00:13:24.523Z,43.56
2019-04-20T00:15:47.118Z,45.36
2019-04-20T00:18:16.888Z,44.96
2019-04-20T00:20:57.552Z,44.26
2019-04-20T00:23:35.429Z,44.47
2019-04-20T00:26:27.406Z,43.84
2019-04-20T00:29:06.998Z,44.56
2019-04-20T00:31:35.319Z,44.56
2019-04-20T00:33:59.461Z,45.60
2019-04-20T00:36:20.173Z,44.70
2019-04-20T00:38:54.713Z,44.57
2019-04-20T00:41:20.730Z,43.22
2019-04-20T00:43:49.211Z,44.71
2019-04-20T00:46:27.859Z,44.64
2019-04-20T00:48:55.836Z,44.62
2019-04-20T00:51:35.236Z,44.08
2019-04-20T00:53:51.768Z,44.79
2019-04-20T00:56:18.348Z,44.05
2019-04-20T00:58:58.145Z,44.66
2019-04-20T01:01:35.938Z,45.29
2019-04-20T01:04:06.763Z,44.65
2019-04-20T01:06:46.744Z,44.60
2019-04-20T01:09:03.412Z,44.94
2019-04-20T01:11:38.403Z,44.30
2019-04-20T01:14:06.022Z,44.79
2019-04-20T01:16:41.744Z,44.97
2019-04-20T01:19:02.441Z,45.32
2019-04-20T01:21:33.420Z,45.13
2019-04-20T01:24:03.572Z,45.49
2019-04-20T01:26:31.397Z,45.37
2019-04-20T01:29:15.885Z,45.81
2019-04-20T01:31:38.322Z,46.29
2019-04-20T01:34:08.261Z,46.06
2019-04-20T01:36:46.151Z,45.91
2019-04-20T01:39:16.338Z,45.07
2019-04-20T01:41:30.882Z,44.45
2019-04-20T01:44:00.406Z,44.42
2019-04-20T01:46:30.476Z,46.54
2019-04-20T01:49:06.843Z,44.37
2019-04-20T01:51:37.343Z,44.56
2019-04-20T01:54:15.893Z,45.07
2019-04-20T01:56:43.702Z,43.93
2019-04-20T01:59:29.421Z,45.11
2019-04-20T02:02:06.941Z,44.63
2019-04-20T02:04:40.985Z,44.69
2019-04-20T02:07:08.670Z,44.66
2019-04-20T02:09:43.315Z,45.15
2019-04-20T02:12:13.512Z,45.30
2019-04-20T02:14:45.412Z,45.06
2019-04-20T02:17:16.752Z,43.98
2019-04-20T02:19:59.822Z,44.33
2019-04-20T02:22:22.950Z,44.79
2019-04-20T02:24:38.818Z,44.79
2019-04-20T02:27:08.168Z,45.08
2019-04-20T02:29:58.519Z,45.68
2019-04-20T02:35:07.177Z,46.23
2019-04-20T02:40:19.173Z,44.60
2019-04-20T02:42:51.507Z,44.45
2019-04-20T02:45:17.417Z,43.89
2019-04-20T02:47:47.323Z,45.49
2019-04-20T02:50:15.167Z,46.22
2019-04-20T02:57:47.753Z,44.83
2019-04-20T03:02:27.272Z,45.27
2019-04-20T03:04:48.032Z,46.00
2019-04-20T03:07:27.654Z,46.40
2019-04-20T03:10:00.823Z,46.14
2019-04-20T03:14:58.573Z,45.18
2019-04-20T03:17:32.877Z,45.39
2019-04-20T03:19:57.249Z,44.47
2019-04-20T03:22:58.417Z,45.35
2019-04-20T03:25:07.890Z,44.33
2019-04-20T03:27:34.361Z,44.73
2019-04-20T03:30:21.962Z,46.00
2019-04-20T03:35:20.970Z,44.58
2019-04-20T03:37:42.773Z,46.29
2019-04-20T03:40:11.250Z,45.73
2019-04-20T03:42:24.346Z,46.11
2019-04-20T03:45:00.478Z,45.70
2019-04-20T03:47:33.755Z,46.68
2019-04-20T03:50:20.184Z,46.51
2019-04-20T03:52:43.677Z,46.64
2019-04-20T03:55:19.931Z,46.53
2019-04-20T03:57:57.358Z,46.11
2019-04-20T04:00:42.998Z,46.03
2019-04-20T04:03:29.444Z,46.60
2019-04-20T04:05:46.956Z,44.88
2019-04-20T04:08:17.046Z,44.88
2019-04-20T04:10:54.788Z,45.73
2019-04-20T04:13:14.901Z,45.61
2019-04-20T04:15:53.252Z,45.82
2019-04-20T04:18:25.388Z,45.26
2019-04-20T04:20:54.034Z,45.35
2019-04-20T04:23:35.598Z,45.58
2019-04-20T04:28:37.128Z,45.40
2019-04-20T04:31:08.195Z,45.33
2019-04-20T04:36:05.851Z,45.35
2019-04-20T04:38:41.916Z,44.88
2019-04-20T04:41:17.094Z,44.65
2019-04-20T04:43:37.263Z,44.30
2019-04-20T04:45:51.211Z,44.82
2019-04-20T04:48:27.575Z,45.00
2019-04-20T04:50:57.329Z,44.17
2019-04-20T04:53:30.377Z,43.99
2019-04-20T04:55:56.317Z,43.66
2019-04-20T04:58:21.595Z,43.47
2019-04-20T05:00:51.345Z,44.08
2019-04-20T05:03:38.651Z,43.25
2019-04-20T05:06:14.763Z,43.42
2019-04-20T05:08:31.666Z,43.46
2019-04-20T05:10:54.127Z,42.34
2019-04-20T05:13:27.680Z,40.85
2019-04-20T05:16:09.795Z,40.80
2019-04-20T05:18:45.155Z,40.99
2019-04-20T05:21:15.338Z,40.41
2019-04-20T05:23:37.810Z,40.43
2019-04-20T05:26:20.019Z,39.66
2019-04-20T05:28:46.110Z,39.81
2019-04-20T05:31:09.389Z,39.70
2019-04-20T05:34:02.310Z,38.59
2019-04-20T05:36:25.626Z,38.22
2019-04-20T05:39:02.257Z,38.63
2019-04-20T05:41:24.107Z,37.92
2019-04-20T05:43:56.513Z,37.73
2019-04-20T05:46:42.383Z,39.81
2019-04-20T05:49:02.607Z,39.96
2019-04-20T05:51:38.307Z,40.33
2019-04-20T05:54:04.459Z,39.00
2019-04-20T05:56:37.293Z,39.79
2019-04-20T05:58:59.655Z,39.17
2019-04-20T06:01:34.497Z,38.71
2019-04-20T06:03:59.332Z,38.14
2019-04-20T06:06:34.640Z,38.62
2019-04-20T06:09:06.849Z,39.17
2019-04-20T06:11:38.439Z,38.18
2019-04-20T06:13:50.709Z,39.77
2019-04-20T06:16:40.380Z,38.28
2019-04-20T06:19:18.774Z,37.70
2019-04-20T06:21:36.789Z,36.87
2019-04-20T06:24:10.602Z,39.07
2019-04-20T06:26:51.970Z,38.45
2019-04-20T06:29:07.236Z,37.34
2019-04-20T06:31:40.681Z,34.76
2019-04-20T06:34:32.801Z,34.76
2019-04-20T06:37:07.150Z,34.70
2019-04-20T06:39:34.850Z,34.47
2019-04-20T06:42:14.039Z,34.64
2019-04-20T06:44:31.993Z,35.46
2019-04-20T06:47:16.245Z,33.77
2019-04-20T06:49:34.515Z,34.40
2019-04-20T06:52:10.139Z,36.96
2019-04-20T06:54:33.873Z,34.36
2019-04-20T06:57:07.226Z,36.31
2019-04-20T06:59:42.959Z,34.67
2019-04-20T07:07:11.583Z,33.98
2019-04-20T07:09:47.408Z,34.07
2019-04-20T07:12:02.698Z,33.90
2019-04-20T07:14:28.832Z,34.75
2019-04-20T07:17:30.849Z,32.67
2019-04-20T07:19:45.367Z,33.07
2019-04-20T07:25:01.303Z,33.63
2019-04-20T07:27:19.912Z,33.02
2019-04-20T07:29:52.023Z,33.54
2019-04-20T07:32:13.223Z,33.92
2019-04-20T07:34:51.349Z,33.83
2019-04-20T07:37:55.054Z,33.03
2019-04-20T07:39:53.830Z,32.57
2019-04-20T07:42:28.465Z,33.41
2019-04-20T07:47:33.053Z,34.31
2019-04-20T07:49:50.031Z,32.31
2019-04-20T07:52:04.011Z,31.73
2019-04-20T07:55:12.429Z,31.59
2019-04-20T07:57:22.532Z,31.55
2019-04-20T07:59:52.834Z,30.08
2019-04-20T08:02:32.392Z,32.06
2019-04-20T08:04:55.314Z,33.60
2019-04-20T08:07:12.728Z,31.56
2019-04-20T08:09:50.819Z,33.84
2019-04-20T08:12:43.816Z,33.30
2019-04-20T08:15:18.144Z,33.08
2019-04-20T08:17:48.586Z,35.38
2019-04-20T08:20:05.830Z,32.52
2019-04-20T08:22:38.892Z,30.24
2019-04-20T08:24:55.339Z,29.84
2019-04-20T08:27:23.461Z,32.05
2019-04-20T08:30:09.288Z,31.77
2019-04-20T08:32:58.244Z,31.19
2019-04-20T08:35:42.319Z,29.60
2019-04-20T08:38:24.163Z,30.11
2019-04-20T08:40:37.286Z,29.11
2019-04-20T08:43:20.842Z,28.00
2019-04-20T08:45:42.045Z,28.23
2019-04-20T08:48:15.162Z,28.37
2019-04-20T08:50:41.326Z,26.03
2019-04-20T08:55:40.053Z,29.32
2019-04-20T08:57:51.738Z,28.02
2019-04-20T09:00:29.363Z,27.72
2019-04-20T09:02:55.616Z,29.09
2019-04-20T09:05:34.728Z,26.59
2019-04-20T09:08:02.515Z,28.02
2019-04-20T09:10:53.983Z,28.39
2019-04-20T09:13:05.811Z,27.61
2019-04-20T09:15:23.446Z,25.60
2019-04-20T09:18:16.926Z,24.20
2019-04-20T09:20:48.730Z,23.65
2019-04-20T09:23:30.033Z,25.99
2019-04-20T09:26:02.445Z,25.23
2019-04-20T09:28:29.826Z,24.60
2019-04-20T09:31:14.308Z,26.03
2019-04-20T09:33:47.030Z,23.53
2019-04-20T09:36:21.091Z,25.28
2019-04-20T09:39:01.169Z,24.58
2019-04-20T09:41:54.885Z,22.02
2019-04-20T09:44:02.534Z,24.13
2019-04-20T09:46:37.769Z,25.59
2019-04-20T09:49:13.053Z,22.20
2019-04-20T09:51:51.158Z,21.53
2019-04-20T09:54:24.439Z,23.94
2019-04-20T09:56:55.225Z,23.77
2019-04-20T09:59:27.014Z,24.48
2019-04-20T10:01:41.912Z,20.90
2019-04-20T10:04:03.527Z,22.51
2019-04-20T10:06:35.906Z,23.61
2019-04-20T10:09:05.004Z,23.82
2019-04-20T10:11:32.598Z,21.39
2019-04-20T10:14:02.027Z,22.78
2019-04-20T10:16:31.504Z,25.95
2019-04-20T10:19:00.746Z,26.03
2019-04-20T10:21:29.956Z,27.32
2019-04-20T10:23:58.963Z,24.99
2019-04-20T10:26:27.526Z,26.48
2019-04-20T10:28:57.379Z,24.21
2019-04-20T10:31:26.498Z,26.86
2019-04-20T10:33:55.713Z,24.02
2019-04-20T10:36:42.092Z,24.25
2019-04-20T10:39:11.014Z,23.80
2019-04-20T10:41:48.353Z,24.91
2019-04-20T10:44:11.199Z,21.00
2019-04-20T10:46:40.732Z,22.99
2019-04-20T10:49:09.687Z,23.15
2019-04-20T10:51:39.959Z,27.16
2019-04-20T10:54:08.790Z,22.87
2019-04-20T10:56:37.416Z,27.08
2019-04-20T10:59:06.017Z,26.35
2019-04-20T11:01:35.724Z,24.20
2019-04-20T11:04:04.926Z,23.49
2019-04-20T11:06:34.538Z,23.59
2019-04-20T11:09:04.686Z,27.61
2019-04-20T11:11:34.174Z,24.83
2019-04-20T11:14:08.360Z,24.85
2019-04-20T11:16:33.769Z,23.42
2019-04-20T11:19:03.275Z,21.68
2019-04-20T11:21:32.333Z,23.10
2019-04-20T11:24:00.879Z,24.67
2019-04-20T11:26:29.323Z,23.22
2019-04-20T11:28:58.042Z,25.18
2019-04-20T11:31:35.705Z,24.23
2019-04-20T11:33:56.698Z,20.66
2019-04-20T11:36:25.356Z,23.79
2019-04-20T11:38:54.403Z,24.51
2019-04-20T11:41:26.084Z,22.37
2019-04-20T11:43:53.794Z,20.75
2019-04-20T11:46:22.826Z,21.58
2019-04-20T11:48:51.821Z,20.35
2019-04-20T11:51:21.525Z,19.42
2019-04-20T11:53:50.213Z,19.58
2019-04-20T11:56:24.057Z,19.99
2019-04-20T11:58:49.169Z,19.92
2019-04-20T12:01:22.545Z,21.17
2019-04-20T12:03:58.421Z,21.64
2019-04-20T12:06:21.068Z,23.54
2019-04-20T12:08:49.796Z,23.03
2019-04-20T12:11:26.582Z,24.37
2019-04-20T12:13:48.984Z,24.91
2019-04-20T12:16:17.491Z,23.61
2019-04-20T12:18:46.437Z,23.99
2019-04-20T12:21:14.968Z,23.65
2019-04-20T12:23:44.507Z,24.03
2019-04-20T12:26:13.154Z,23.54
2019-04-20T12:28:41.685Z,21.46
2019-04-20T12:31:14.743Z,23.42
2019-04-20T12:33:40.391Z,23.13
2019-04-20T12:36:10.391Z,26.79
2019-04-20T12:38:39.173Z,22.96
2019-04-20T12:41:10.964Z,23.32
2019-04-20T12:43:38.792Z,23.07
2019-04-20T12:46:07.674Z,23.21
2019-04-20T12:48:37.636Z,22.90
2019-04-20T12:51:06.162Z,21.23
2019-04-20T12:53:34.971Z,20.24
2019-04-20T12:56:04.404Z,22.63
2019-04-20T12:58:32.982Z,20.25
2019-04-20T13:01:02.601Z,20.04
2019-04-20T13:03:31.750Z,19.91
2019-04-20T13:06:01.858Z,21.92
2019-04-20T13:08:36.647Z,20.12
2019-04-20T13:11:04.603Z,20.29
2019-04-20T13:13:34.681Z,20.29
2019-04-20T13:16:14.334Z,22.64
2019-04-20T13:18:45.452Z,21.79
2019-04-20T13:21:14.034Z,21.74
2019-04-20T13:23:42.832Z,22.79
2019-04-20T13:26:12.753Z,19.53
2019-04-20T13:28:41.465Z,19.53
2019-04-20T13:31:09.933Z,18.08
2019-04-20T13:33:39.097Z,18.36
2019-04-20T13:36:08.202Z,18.53
2019-04-20T13:38:36.713Z,18.98
2019-04-20T13:41:06.228Z,19.86
2019-04-20T13:43:35.529Z,18.45
2019-04-20T13:46:04.934Z,20.02
2019-04-20T13:48:33.431Z,20.43
2019-04-20T13:51:02.321Z,21.48
2019-04-20T13:53:30.924Z,21.48
2019-04-20T13:56:01.412Z,20.83
2019-04-20T13:58:48.211Z,21.97
2019-04-20T14:01:21.073Z,21.11
2019-04-20T14:03:51.374Z,22.43
2019-04-20T14:06:21.155Z,21.47
2019-04-20T14:08:49.786Z,22.58
2019-04-20T14:11:18.244Z,23.62
2019-04-20T14:13:53.553Z,21.63
2019-04-20T14:16:16.998Z,22.55
2019-04-20T14:18:45.452Z,21.09
2019-04-20T14:21:14.251Z,20.23
2019-04-20T14:23:43.216Z,20.55
2019-04-20T14:26:12.659Z,23.32
2019-04-20T14:28:41.205Z,20.82
2019-04-20T14:31:09.902Z,20.52
2019-04-20T14:33:39.126Z,21.06
2019-04-20T14:36:08.768Z,22.38
2019-04-20T14:38:38.325Z,20.52
2019-04-20T14:41:08.383Z,22.02
2019-04-20T14:43:38.114Z,21.35
2019-04-20T14:46:08.414Z,21.71
2019-04-20T14:48:37.027Z,24.77
2019-04-20T14:51:05.763Z,20.44
2019-04-20T14:53:35.413Z,20.27
2019-04-20T14:56:05.329Z,21.42
2019-04-20T14:58:41.440Z,22.77
2019-04-20T15:01:10.799Z,20.28
2019-04-20T15:03:40.843Z,22.30
2019-04-20T15:06:11.668Z,24.79
2019-04-20T15:08:40.791Z,24.74
2019-04-20T15:11:09.437Z,25.68
2019-04-20T15:13:40.629Z,25.59
2019-04-20T15:16:10.731Z,24.73
2019-04-20T15:18:53.580Z,24.57
2019-04-20T15:21:24.749Z,25.26
2019-04-20T15:23:53.569Z,24.35
2019-04-20T15:26:22.470Z,23.47
2019-04-20T15:28:52.419Z,23.23
2019-04-20T15:31:21.025Z,23.63
2019-04-20T15:33:50.746Z,23.66
2019-04-20T15:36:20.131Z,23.05
2019-04-20T15:38:49.387Z,23.39
2019-04-20T15:41:18.521Z,22.62
2019-04-20T15:43:47.354Z,23.42
2019-04-20T15:46:17.117Z,23.55
2019-04-20T15:48:46.160Z,22.63
2019-04-20T15:51:17.133Z,22.70
2019-04-20T15:53:47.350Z,24.09
2019-04-20T15:56:16.598Z,23.05
2019-04-20T15:58:46.150Z,23.70
2019-04-20T16:01:16.370Z,23.92
2019-04-20T16:03:47.646Z,25.60
2019-04-20T16:06:17.065Z,25.89
2019-04-20T16:08:48.221Z,25.48
2019-04-20T16:11:17.404Z,24.74
2019-04-20T16:13:49.894Z,25.77
2019-04-20T16:16:16.318Z,24.75
2019-04-20T16:18:46.568Z,24.96
2019-04-20T16:21:20.886Z,25.80
2019-04-20T16:23:54.697Z,25.37
2019-04-20T16:26:25.918Z,25.75
2019-04-20T16:28:55.494Z,25.73
2019-04-20T16:31:24.534Z,25.25
2019-04-20T16:33:55.630Z,25.53
2019-04-20T16:36:23.374Z,26.42
2019-04-20T16:38:53.173Z,26.75
2019-04-20T16:41:22.303Z,26.68
2019-04-20T16:43:51.619Z,26.98
2019-04-20T16:46:23.669Z,27.08
2019-04-20T16:48:50.597Z,26.45
2019-04-20T16:51:19.058Z,26.89
2019-04-20T16:53:47.914Z,27.64
2019-04-20T16:56:18.872Z,27.19
2019-04-20T16:58:48.309Z,26.94
2019-04-20T17:01:17.316Z,27.51
2019-04-20T17:03:55.161Z,26.84
2019-04-20T17:06:15.993Z,27.44
2019-04-20T17:08:45.789Z,27.73
2019-04-20T17:11:15.903Z,27.73
2019-04-20T17:13:49.662Z,28.01
2019-04-20T17:16:15.603Z,28.19
2019-04-20T17:18:47.885Z,27.94
2019-04-20T17:21:21.739Z,27.51
2019-04-20T17:23:47.023Z,28.48
2019-04-20T17:26:17.296Z,28.15
2019-04-20T17:29:03.917Z,28.12
2019-04-20T17:31:47.273Z,28.45
2019-04-20T17:36:46.614Z,29.73
2019-04-20T17:39:25.909Z,29.00
2019-04-20T17:42:02.956Z,29.06
2019-04-20T17:44:31.491Z,29.05
2019-04-20T17:46:58.694Z,29.10
2019-04-20T17:49:31.459Z,29.80
2019-04-20T17:52:12.245Z,29.85
2019-04-20T17:54:22.107Z,29.64
2019-04-20T17:56:52.171Z,30.00
2019-04-20T17:59:22.261Z,30.64
2019-04-20T18:02:07.778Z,29.23
2019-04-20T18:07:28.183Z,30.24
2019-04-20T18:10:01.528Z,30.11
2019-04-20T18:12:09.548Z,30.75
2019-04-20T18:14:47.966Z,31.46
2019-04-20T18:17:25.840Z,31.24
2019-04-20T18:19:57.121Z,31.05
2019-04-20T18:22:25.847Z,31.45
2019-04-20T18:25:12.178Z,31.90
2019-04-20T18:27:41.121Z,31.80
2019-04-20T18:30:11.377Z,32.02
2019-04-20T18:32:35.585Z,32.38
2019-04-20T18:35:16.389Z,32.49
2019-04-20T18:37:52.573Z,32.95
2019-04-20T18:40:26.659Z,33.03
2019-04-20T18:42:55.922Z,32.92
2019-04-20T18:45:29.586Z,33.17
2019-04-20T18:48:05.901Z,33.34
2019-04-20T18:50:26.604Z,33.08
2019-04-20T18:52:49.783Z,33.57
2019-04-20T18:55:26.368Z,34.06
2019-04-20T18:57:49.276Z,34.28
2019-04-20T19:00:26.968Z,34.04
2019-04-20T19:02:54.375Z,34.49
2019-04-20T19:05:21.961Z,34.64
2019-04-20T19:07:59.357Z,34.47
2019-04-20T19:10:27.177Z,34.90
2019-04-20T19:12:59.872Z,35.32
2019-04-20T19:15:47.543Z,35.13
2019-04-20T19:18:12.890Z,34.82
2019-04-20T19:20:34.989Z,35.55
2019-04-20T19:23:04.124Z,35.99
2019-04-20T19:25:36.960Z,35.76
2019-04-20T19:28:04.740Z,36.04
2019-04-20T19:30:41.290Z,35.82
2019-04-20T19:33:20.584Z,36.17
2019-04-20T19:35:48.542Z,36.00
2019-04-20T19:38:13.688Z,36.39
2019-04-20T19:40:47.918Z,36.36
2019-04-20T19:43:15.746Z,36.18
2019-04-20T19:46:07.384Z,37.13
2019-04-20T19:48:22.353Z,36.98
2019-04-20T19:51:00.819Z,37.30
2019-04-20T19:53:45.529Z,37.02
2019-04-20T19:55:47.762Z,37.32
2019-04-20T19:58:24.978Z,37.14
2019-04-20T20:00:53.221Z,37.21
2019-04-20T20:03:21.621Z,37.71
2019-04-20T20:05:53.792Z,37.78
2019-04-20T20:08:24.410Z,38.10
2019-04-20T20:10:52.473Z,37.98
2019-04-20T20:13:27.613Z,38.29
2019-04-20T20:15:57.435Z,38.08
2019-04-20T20:18:40.226Z,38.53
2019-04-20T20:21:09.956Z,38.53
2019-04-20T20:23:24.001Z,38.66
2019-04-20T20:25:53.207Z,38.85
2019-04-20T20:28:31.097Z,38.75
2019-04-20T20:31:05.090Z,39.21
2019-04-20T20:33:41.960Z,39.10
2019-04-20T20:36:01.966Z,39.33
2019-04-20T20:38:31.688Z,39.36
2019-04-20T20:41:05.830Z,39.44
2019-04-20T20:43:39.404Z,39.59
2019-04-20T20:46:06.488Z,39.92
2019-04-20T20:48:38.533Z,40.19
2019-04-20T20:51:12.077Z,40.18
2019-04-20T20:53:41.406Z,40.20
2019-04-20T20:56:06.601Z,40.48
2019-04-20T20:58:36.207Z,40.57
2019-04-20T21:01:04.376Z,40.84
2019-04-20T21:03:32.176Z,40.52
2019-04-20T21:05:55.683Z,40.40
2019-04-20T21:08:24.074Z,40.68
2019-04-20T21:10:52.745Z,40.59
2019-04-20T21:13:21.455Z,40.78
2019-04-20T21:15:54.108Z,40.76
2019-04-20T21:18:45.736Z,40.66
2019-04-20T21:21:10.275Z,40.84
2019-04-20T21:23:35.364Z,40.89
2019-04-20T21:26:21.729Z,41.29
2019-04-20T21:28:41.984Z,41.31
2019-04-20T21:31:15.904Z,40.56
2019-04-20T21:33:42.844Z,41.16
2019-04-20T21:36:13.540Z,40.54
2019-04-20T21:38:44.354Z,40.38
2019-04-20T21:41:16.470Z,40.65
2019-04-20T21:43:44.563Z,40.95
2019-04-20T21:46:13.884Z,41.16
2019-04-20T21:48:55.874Z,41.28
2019-04-20T21:51:24.385Z,41.20
2019-04-20T21:53:44.298Z,41.15
2019-04-20T21:56:12.873Z,41.31
2019-04-20T21:58:48.270Z,41.86
2019-04-20T22:01:22.255Z,41.72
2019-04-20T22:03:44.359Z,41.92
2019-04-20T22:06:14.081Z,42.07
2019-04-20T22:08:49.337Z,41.93
2019-04-20T22:11:13.590Z,41.37
2019-04-20T22:13:44.572Z,41.16
2019-04-20T22:16:14.629Z,41.25
2019-04-20T22:18:53.012Z,41.19
2019-04-20T22:21:22.712Z,40.85
2019-04-20T22:24:00.192Z,41.43
2019-04-20T22:26:26.833Z,41.85
2019-04-20T22:28:44.622Z,42.18
2019-04-20T22:31:14.070Z,41.48
2019-04-20T22:33:44.945Z,42.02
2019-04-20T22:36:14.559Z,42.16
2019-04-20T22:39:03.426Z,42.55
2019-04-20T22:41:34.298Z,42.35
2019-04-20T22:44:11.507Z,42.08
2019-04-20T22:46:37.592Z,42.49
2019-04-20T22:49:20.936Z,42.05
2019-04-20T22:51:50.758Z,42.16
2019-04-20T22:54:23.167Z,42.24
2019-04-20T22:56:49.979Z,41.87
2019-04-20T22:59:13.959Z,42.38
2019-04-20T23:01:45.806Z,43.29
2019-04-20T23:04:08.831Z,43.41
2019-04-20T23:06:42.426Z,43.22
2019-04-20T23:09:11.614Z,42.55
2019-04-20T23:11:40.366Z,42.55
2019-04-20T23:14:10.690Z,42.34
2019-04-20T23:16:43.940Z,42.48
2019-04-20T23:19:10.296Z,41.69
2019-04-20T23:21:40.616Z,42.83
2019-04-20T23:24:11.385Z,42.83
2019-04-20T23:26:42.548Z,42.91
2019-04-20T23:29:11.284Z,43.10
2019-04-20T23:31:46.135Z,43.26
2019-04-20T23:34:16.521Z,43.87
2019-04-20T23:36:43.845Z,43.99
2019-04-20T23:39:10.840Z,43.77
2019-04-20T23:41:43.512Z,43.42
2019-04-20T23:44:19.010Z,43.73
2019-04-20T23:46:53.467Z,43.17
2019-04-20T23:49:27.196Z,42.86
2019-04-20T23:52:09.971Z,43.40
2019-04-20T23:54:26.271Z,43.08
2019-04-20T23:56:53.586Z,43.95
2019-04-20T23:59:30.795Z,43.68
